Time;durP1;ratioP1;P1;durP2;ratioP2;P2;SDS_P1;SDS_P2;PMS_P1;PMS_P2;Temp;Humidity;BMP_temperature;BMP_pressure;BME280_temperature;BME280_humidity;BME280_pressure;Samples;Min_cycle;Max_cycle;Signal;HPM_P1;HPM_P2
2023/02/21 03:22:10;;;;;;;3.22;3.13;;;0.70;99.90;;;;;;6068740;23;20716;-74
2023/02/21 03:24:41;;;;;;;3.00;2.90;;;0.70;99.90;;;;;;6096367;23;20443;-71
2023/02/21 03:27:09;;;;;;;3.20;3.10;;;0.70;99.90;;;;;;6121013;23;20478;-74
2023/02/21 03:29:37;;;;;;;2.80;2.70;;;0.60;99.90;;;;;;6121998;23;20418;-74
2023/02/21 03:34:46;;;;;;;3.17;3.08;;;0.60;99.90;;;;;;6097160;23;20531;-73
2023/02/21 03:37:30;;;;;;;3.22;3.13;;;0.50;99.90;;;;;;6122772;23;20410;-74
2023/02/21 03:39:57;;;;;;;2.85;2.75;;;0.50;99.90;;;;;;6095467;23;20436;-74
2023/02/21 03:42:24;;;;;;;3.15;3.05;;;0.40;99.90;;;;;;6097058;23;20375;-74
2023/02/21 03:44:51;;;;;;;3.17;3.08;;;0.40;99.90;;;;;;6095644;23;20391;-74
2023/02/21 03:47:18;;;;;;;3.13;3.03;;;0.40;99.90;;;;;;6122619;23;20404;-73
2023/02/21 03:49:45;;;;;;;3.40;3.30;;;0.40;99.90;;;;;;6096079;23;20386;-71
2023/02/21 03:52:12;;;;;;;3.22;3.13;;;0.50;99.90;;;;;;6095855;23;20415;-73
2023/02/21 03:54:40;;;;;;;3.20;3.10;;;0.50;99.90;;;;;;6096250;23;20689;-73
2023/02/21 03:57:07;;;;;;;3.72;3.63;;;0.60;99.90;;;;;;6096953;23;20810;-72
2023/02/21 03:59:34;;;;;;;3.72;3.63;;;0.60;99.90;;;;;;6122003;23;20391;-73
2023/02/21 04:02:01;;;;;;;3.50;3.40;;;0.70;99.90;;;;;;6095910;23;20474;-74
2023/02/21 04:04:28;;;;;;;3.40;3.30;;;0.80;99.90;;;;;;6103090;23;20416;-74
2023/02/21 04:06:55;;;;;;;3.97;3.78;;;0.80;99.90;;;;;;6091230;23;20416;-73
2023/02/21 04:09:22;;;;;;;4.03;3.83;;;0.90;99.90;;;;;;6093292;23;20385;-74
2023/02/21 04:11:49;;;;;;;4.57;4.38;;;0.90;99.90;;;;;;6091250;23;20385;-74
2023/02/21 04:14:16;;;;;;;4.30;4.10;;;1.00;99.90;;;;;;6093019;23;20376;-74
2023/02/21 04:16:43;;;;;;;4.23;4.03;;;1.00;99.90;;;;;;6066458;23;20383;-74
2023/02/21 04:19:09;;;;;;;3.85;3.65;;;1.00;99.90;;;;;;6093077;23;20377;-73
2023/02/21 04:21:36;;;;;;;3.78;3.67;;;1.00;99.90;;;;;;6067390;23;20429;-73
2023/02/21 04:24:03;;;;;;;3.67;3.58;;;1.10;99.90;;;;;;6092522;23;20369;-73
2023/02/21 04:26:31;;;;;;;3.58;3.47;;;1.10;99.90;;;;;;6091997;23;20482;-74
2023/02/21 04:28:57;;;;;;;3.45;3.35;;;1.20;99.90;;;;;;6092197;23;20927;-73
2023/02/21 04:31:24;;;;;;;4.10;4.00;;;1.20;99.90;;;;;;6092564;23;20385;-74
2023/02/21 04:33:51;;;;;;;4.30;4.10;;;1.30;99.90;;;;;;6091813;23;20389;-74
2023/02/21 04:36:37;;;;;;;4.00;3.90;;;1.30;99.90;;;;;;6070701;23;20401;-74
2023/02/21 04:39:05;;;;;;;3.70;3.60;;;1.40;99.90;;;;;;6066608;23;20440;-74
2023/02/21 04:41:32;;;;;;;3.40;3.30;;;1.40;99.90;;;;;;6092231;23;20385;-74
2023/02/21 04:43:59;;;;;;;3.28;3.17;;;1.40;99.90;;;;;;6066938;23;20378;-72
2023/02/21 04:46:26;;;;;;;3.13;3.03;;;1.50;99.90;;;;;;6092647;23;20369;-73
2023/02/21 04:48:53;;;;;;;3.20;3.10;;;1.50;99.90;;;;;;6091020;23;20429;-74
2023/02/21 04:51:23;;;;;;;3.13;3.03;;;1.50;99.90;;;;;;6092605;23;20397;-74
2023/02/21 04:53:51;;;;;;;3.03;2.92;;;1.60;99.90;;;;;;6091327;23;20408;-75
2023/02/21 04:56:21;;;;;;;3.17;3.08;;;1.60;99.90;;;;;;6092666;23;20425;-75
2023/02/21 04:58:48;;;;;;;2.67;2.58;;;1.70;99.90;;;;;;6066554;23;20384;-72
2023/02/21 05:01:16;;;;;;;3.05;2.95;;;1.70;99.90;;;;;;6090737;23;20378;-72
2023/02/21 05:03:44;;;;;;;2.80;2.70;;;1.80;99.90;;;;;;6092413;23;20381;-72
2023/02/21 05:06:17;;;;;;;3.20;3.10;;;1.80;99.90;;;;;;6066569;23;20381;-74
2023/02/21 05:08:44;;;;;;;2.80;2.70;;;1.80;99.90;;;;;;6092139;23;20413;-74
2023/02/21 05:11:11;;;;;;;3.00;2.90;;;1.90;99.90;;;;;;6091958;23;20370;-74
2023/02/21 05:13:38;;;;;;;3.10;3.00;;;2.00;99.90;;;;;;6091426;23;20701;-74
2023/02/21 05:16:06;;;;;;;3.10;3.00;;;2.00;99.90;;;;;;6090617;23;20453;-74
2023/02/21 05:18:33;;;;;;;2.85;2.75;;;2.00;99.90;;;;;;6091989;23;20748;-74
2023/02/21 05:21:00;;;;;;;3.60;3.45;;;2.10;99.90;;;;;;6065376;23;20380;-72
2023/02/21 05:23:35;;;;;;;3.00;2.90;;;2.10;99.90;;;;;;6066950;23;20465;-74
2023/02/21 05:26:06;;;;;;;3.70;3.60;;;2.10;99.90;;;;;;6066389;23;20378;-73
2023/02/21 05:28:33;;;;;;;3.10;3.00;;;2.20;99.90;;;;;;6066559;23;20377;-73
2023/02/21 05:31:00;;;;;;;3.40;3.30;;;2.30;99.90;;;;;;6066514;23;20382;-74
2023/02/21 05:33:28;;;;;;;3.88;3.70;;;2.30;99.90;;;;;;6066777;23;20714;-73
2023/02/21 05:35:55;;;;;;;3.30;3.20;;;2.40;99.90;;;;;;6065599;23;20382;-74
2023/02/21 05:38:23;;;;;;;3.05;2.95;;;2.50;99.90;;;;;;6092580;23;20369;-73
2023/02/21 05:40:51;;;;;;;3.50;3.40;;;2.50;99.90;;;;;;6091007;23;20755;-74
2023/02/21 05:43:18;;;;;;;3.55;3.45;;;2.60;99.90;;;;;;6067294;23;20389;-74
2023/02/21 05:45:45;;;;;;;3.30;3.20;;;2.70;99.90;;;;;;6066789;23;20374;-73
2023/02/21 05:48:12;;;;;;;3.22;3.13;;;2.70;99.90;;;;;;6066171;23;20420;-73
2023/02/21 05:50:39;;;;;;;3.50;3.40;;;2.80;99.90;;;;;;6091870;23;20381;-73
2023/02/21 05:53:06;;;;;;;3.40;3.30;;;2.80;99.90;;;;;;6093361;23;20416;-73
2023/02/21 05:55:32;;;;;;;3.80;3.67;;;2.90;99.90;;;;;;6093813;23;20468;-74
2023/02/21 05:57:59;;;;;;;3.70;3.50;;;2.90;99.90;;;;;;6093168;23;20401;-71
2023/02/21 06:00:28;;;;;;;4.10;3.90;;;3.00;99.90;;;;;;6094385;23;20975;-71
2023/02/21 06:02:56;;;;;;;3.70;3.50;;;3.00;99.90;;;;;;6092982;23;20381;-71
2023/02/21 06:05:23;;;;;;;3.65;3.55;;;3.00;99.90;;;;;;6094113;23;20415;-72
2023/02/21 06:07:50;;;;;;;4.55;4.35;;;3.10;99.90;;;;;;6068978;23;20911;-72
2023/02/21 06:10:18;;;;;;;3.38;3.28;;;3.10;99.90;;;;;;6093415;23;20718;-71
2023/02/21 06:12:46;;;;;;;3.60;3.50;;;3.20;99.90;;;;;;6093287;23;20385;-74
2023/02/21 06:15:14;;;;;;;4.45;4.25;;;3.10;99.90;;;;;;6092286;23;20386;-74
2023/02/21 06:17:42;;;;;;;4.00;3.80;;;3.20;99.90;;;;;;6068207;23;20392;-74
2023/02/21 06:20:16;;;;;;;4.63;4.43;;;3.20;99.90;;;;;;6067685;23;20381;-72
2023/02/21 06:22:43;;;;;;;4.60;4.40;;;3.20;99.90;;;;;;6093052;23;20381;-73
2023/02/21 06:25:10;;;;;;;4.90;4.60;;;3.30;99.90;;;;;;6066559;23;20413;-72
2023/02/21 06:27:37;;;;;;;4.50;4.30;;;3.40;99.90;;;;;;6067766;23;20416;-72
2023/02/21 06:30:05;;;;;;;4.60;4.40;;;3.40;99.90;;;;;;6092298;23;20718;-72
2023/02/21 06:32:32;;;;;;;5.03;4.72;;;3.40;99.90;;;;;;6068250;23;20449;-72
2023/02/21 06:34:59;;;;;;;4.50;4.30;;;3.50;99.90;;;;;;6092348;23;20457;-72
2023/02/21 06:37:27;;;;;;;5.15;4.85;;;3.60;99.90;;;;;;6068320;23;20416;-73
2023/02/21 06:39:54;;;;;;;4.90;4.60;;;3.70;99.90;;;;;;6093390;23;20385;-73
2023/02/21 06:42:21;;;;;;;4.97;4.68;;;3.80;99.90;;;;;;6067474;23;20401;-73
2023/02/21 06:44:49;;;;;;;5.18;4.88;;;3.80;99.90;;;;;;6090996;23;20444;-73
2023/02/21 06:47:16;;;;;;;5.38;5.05;;;3.80;99.90;;;;;;6066203;23;20373;-73
2023/02/21 06:49:43;;;;;;;4.90;4.60;;;3.90;99.90;;;;;;6068349;23;20854;-73
2023/02/21 06:52:10;;;;;;;4.78;4.47;;;3.90;99.90;;;;;;6067626;23;20452;-72
2023/02/21 06:54:37;;;;;;;4.75;4.45;;;4.00;99.90;;;;;;6093259;23;20452;-73
2023/02/21 06:57:04;;;;;;;4.90;4.60;;;4.00;99.90;;;;;;6092029;23;20412;-73
2023/02/21 06:59:31;;;;;;;4.68;4.38;;;4.10;99.90;;;;;;6093463;23;20420;-73
2023/02/21 07:01:58;;;;;;;4.23;4.03;;;4.10;99.90;;;;;;6068021;23;20374;-73
2023/02/21 07:04:25;;;;;;;4.75;4.45;;;4.20;99.90;;;;;;6067137;23;20773;-73
2023/02/21 07:06:52;;;;;;;4.72;4.43;;;4.30;99.90;;;;;;6067692;23;20389;-72
2023/02/21 07:09:19;;;;;;;4.90;4.60;;;4.30;99.90;;;;;;6092594;23;20396;-73
2023/02/21 07:11:46;;;;;;;4.75;4.45;;;4.40;99.90;;;;;;6091977;23;20380;-72
2023/02/21 07:14:13;;;;;;;4.88;4.57;;;4.40;99.90;;;;;;6093182;23;20377;-73
2023/02/21 07:16:40;;;;;;;4.95;4.65;;;4.40;99.90;;;;;;6092761;23;20664;-72
2023/02/21 07:19:07;;;;;;;5.00;4.70;;;4.40;99.90;;;;;;6092326;23;20888;-73
2023/02/21 07:21:34;;;;;;;5.33;5.03;;;4.50;99.90;;;;;;6093206;23;20393;-73
2023/02/21 07:24:02;;;;;;;5.07;4.78;;;4.50;99.90;;;;;;6087034;23;20413;-74
2023/02/21 07:26:28;;;;;;;5.03;4.72;;;4.60;99.90;;;;;;6065714;23;20381;-72
2023/02/21 07:28:55;;;;;;;4.20;4.00;;;4.70;99.90;;;;;;6092210;23;20385;-74
2023/02/21 07:31:22;;;;;;;4.30;4.10;;;4.70;99.90;;;;;;6066167;23;20381;-73
2023/02/21 07:33:49;;;;;;;4.38;4.07;;;4.70;99.90;;;;;;6092992;23;20900;-73
2023/02/21 07:36:18;;;;;;;4.40;4.15;;;4.80;99.90;;;;;;6091342;23;20688;-73
2023/02/21 07:38:44;;;;;;;4.30;4.10;;;4.80;99.90;;;;;;6044949;23;20698;-73
2023/02/21 07:41:14;;;;;;;4.85;4.50;;;4.90;99.90;;;;;;6067166;23;20381;-74
2023/02/21 07:43:41;;;;;;;4.30;4.10;;;5.00;99.90;;;;;;6044643;23;20377;-73
2023/02/21 07:46:12;;;;;;;4.88;4.57;;;5.10;99.90;;;;;;6067013;23;20404;-73
2023/02/21 07:48:41;;;;;;;4.63;4.43;;;5.20;99.90;;;;;;6092381;23;20374;-73
2023/02/21 07:51:09;;;;;;;4.45;4.15;;;5.40;99.90;;;;;;6092312;23;20853;-73
2023/02/21 07:53:36;;;;;;;4.63;4.32;;;5.50;99.90;;;;;;6067411;23;21428;-73
2023/02/21 07:56:04;;;;;;;4.25;4.05;;;5.70;99.90;;;;;;6093559;23;20762;-73
2023/02/21 07:58:31;;;;;;;4.30;4.10;;;5.80;99.90;;;;;;6092205;23;20546;-73
2023/02/21 08:00:58;;;;;;;4.30;4.10;;;6.00;99.90;;;;;;6067466;23;20381;-73
2023/02/21 08:03:25;;;;;;;4.28;3.97;;;6.10;99.90;;;;;;6066645;23;20845;-73
2023/02/21 08:05:51;;;;;;;4.30;4.05;;;6.30;99.90;;;;;;6093226;23;20421;-73
2023/02/21 08:08:18;;;;;;;4.40;4.17;;;6.50;99.90;;;;;;6066524;23;20388;-73
2023/02/21 08:10:45;;;;;;;4.00;3.80;;;6.60;99.90;;;;;;6068281;23;20381;-72
2023/02/21 08:13:12;;;;;;;4.30;4.10;;;6.80;99.90;;;;;;6091340;23;20754;-74
2023/02/21 08:15:39;;;;;;;4.20;4.00;;;7.00;99.90;;;;;;6092241;23;20730;-75
2023/02/21 08:18:06;;;;;;;4.20;4.00;;;7.10;99.90;;;;;;6092939;23;20904;-73
2023/02/21 08:20:33;;;;;;;4.15;3.92;;;7.30;99.90;;;;;;6091243;23;20425;-73
2023/02/21 08:23:00;;;;;;;3.75;3.55;;;7.50;99.90;;;;;;6092386;23;20377;-74
2023/02/21 08:25:27;;;;;;;4.50;4.30;;;7.70;99.90;;;;;;6066620;23;20382;-74
2023/02/21 08:27:54;;;;;;;4.10;3.90;;;7.80;99.90;;;;;;6092966;23;20404;-73
2023/02/21 08:30:21;;;;;;;3.92;3.72;;;8.00;99.90;;;;;;6091771;23;20381;-74
2023/02/21 08:32:50;;;;;;;3.97;3.77;;;8.20;99.90;;;;;;6066721;23;20382;-73
2023/02/21 08:35:21;;;;;;;3.95;3.75;;;8.40;99.90;;;;;;6044517;23;20385;-74
2023/02/21 08:37:49;;;;;;;4.30;4.10;;;8.60;99.90;;;;;;6067617;23;20381;-73
2023/02/21 08:40:19;;;;;;;4.22;4.00;;;8.70;99.90;;;;;;6091769;23;20425;-74
2023/02/21 08:42:53;;;;;;;4.05;3.85;;;8.80;99.90;;;;;;6066801;23;20448;-74
2023/02/21 08:45:24;;;;;;;4.53;4.22;;;9.00;98.30;;;;;;6091130;23;20385;-74
2023/02/21 08:47:51;;;;;;;3.92;3.72;;;9.10;98.40;;;;;;6092182;23;20405;-73
2023/02/21 08:50:23;;;;;;;3.60;3.40;;;9.30;98.40;;;;;;6091213;23;20781;-73
2023/02/21 08:52:51;;;;;;;3.50;3.30;;;9.40;94.60;;;;;;6067235;23;20397;-73
2023/02/21 08:55:19;;;;;;;3.92;3.65;;;9.50;94.40;;;;;;6090632;23;20374;-73
2023/02/21 08:57:50;;;;;;;3.53;3.33;;;9.70;94.40;;;;;;6067567;23;20373;-73
2023/02/21 09:00:22;;;;;;;3.47;3.28;;;9.80;94.60;;;;;;6066386;23;20414;-73
2023/02/21 09:02:50;;;;;;;3.17;3.08;;;9.80;92.20;;;;;;6067388;23;20717;-73
2023/02/21 09:05:26;;;;;;;3.00;2.80;;;10.00;92.90;;;;;;6066549;23;20850;-74
2023/02/21 09:07:57;;;;;;;3.38;3.17;;;10.10;90.30;;;;;;6066904;23;20388;-73
2023/02/21 09:10:28;;;;;;;3.60;3.40;;;10.20;89.50;;;;;;6066547;23;20444;-73
2023/02/21 09:12:55;;;;;;;3.60;3.40;;;10.30;89.00;;;;;;6067244;23;20409;-74
2023/02/21 09:15:22;;;;;;;3.60;3.40;;;10.40;89.60;;;;;;6091083;23;20413;-76
2023/02/21 09:17:49;;;;;;;4.88;4.57;;;10.50;90.30;;;;;;6092119;23;20437;-73
2023/02/21 09:20:20;;;;;;;3.78;3.58;;;10.70;85.70;;;;;;6065272;23;20841;-74
2023/02/21 09:22:47;;;;;;;4.05;3.75;;;10.80;87.00;;;;;;6067675;23;20385;-74
2023/02/21 09:25:16;;;;;;;4.43;4.13;;;11.00;87.50;;;;;;6066454;23;20929;-74
2023/02/21 09:27:43;;;;;;;4.20;4.00;;;11.20;84.40;;;;;;6091389;23;20450;-74
2023/02/21 09:30:20;;;;;;;3.97;3.77;;;11.30;81.80;;;;;;6091548;23;20385;-73
2023/02/21 09:32:48;;;;;;;4.20;4.00;;;11.40;82.50;;;;;;6066065;23;20386;-74
2023/02/21 09:35:15;;;;;;;4.38;4.18;;;11.50;84.70;;;;;;6066744;23;20414;-74
2023/02/21 09:37:44;;;;;;;4.32;4.13;;;11.60;84.60;;;;;;6091010;23;20484;-74
2023/02/21 09:40:21;;;;;;;4.65;4.35;;;11.80;84.20;;;;;;6091924;23;20404;-74
2023/02/21 09:42:57;;;;;;;4.18;3.97;;;11.80;82.80;;;;;;6090923;23;20380;-74
2023/02/21 09:45:33;;;;;;;4.13;3.92;;;11.90;89.70;;;;;;6065808;23;20453;-74
2023/02/21 09:48:07;;;;;;;4.32;4.13;;;12.00;90.40;;;;;;6066936;23;20373;-74
2023/02/21 09:50:42;;;;;;;4.15;3.95;;;12.20;90.00;;;;;;6089740;23;20420;-74
2023/02/21 09:53:13;;;;;;;4.38;4.18;;;12.40;86.70;;;;;;6092079;23;20395;-74
2023/02/21 09:55:40;;;;;;;4.40;4.00;;;12.40;86.10;;;;;;6090873;23;20437;-74
2023/02/21 09:58:12;;;;;;;4.28;3.97;;;12.40;86.30;;;;;;6043579;23;20385;-74
2023/02/21 10:00:42;;;;;;;3.85;3.65;;;12.60;86.10;;;;;;6065931;23;20388;-74
2023/02/21 10:03:25;;;;;;;3.17;2.97;;;12.80;86.60;;;;;;6066574;23;20873;-73
2023/02/21 10:06:00;;;;;;;2.80;2.70;;;12.80;86.50;;;;;;6088745;23;20389;-74
2023/02/21 10:08:55;;;;;;;2.40;2.30;;;13.00;86.50;;;;;;6066772;23;20386;-74
2023/02/21 10:11:52;;;;;;;2.50;2.40;;;13.10;82.80;;;;;;6091407;23;20412;-74
2023/02/21 10:14:28;;;;;;;3.70;2.35;;;13.00;80.50;;;;;;6066000;23;20377;-74
2023/02/21 10:17:15;;;;;;;2.20;2.10;;;13.10;80.90;;;;;;6090275;23;20460;-74
2023/02/21 10:19:47;;;;;;;2.25;2.15;;;13.20;81.20;;;;;;6066416;23;20476;-73
2023/02/21 10:22:21;;;;;;;2.42;2.33;;;13.30;81.50;;;;;;6090394;23;20385;-74
2023/02/21 10:24:49;;;;;;;2.43;2.33;;;13.40;81.30;;;;;;6066772;23;20422;-74
2023/02/21 10:27:23;;;;;;;2.10;2.00;;;13.60;79.90;;;;;;6065131;23;21167;-73
2023/02/21 10:30:04;;;;;;;1.75;1.65;;;13.60;75.50;;;;;;6066322;23;20416;-74
2023/02/21 10:32:32;;;;;;;2.25;2.08;;;13.60;77.20;;;;;;6065689;23;20694;-75
2023/02/21 10:34:59;;;;;;;1.90;1.80;;;13.70;78.60;;;;;;6041980;23;20503;-73
2023/02/21 10:37:29;;;;;;;2.03;1.92;;;13.60;79.90;;;;;;6065284;23;20893;-75
2023/02/21 10:40:04;;;;;;;2.50;2.40;;;13.70;80.30;;;;;;6093334;23;21119;-74
2023/02/21 10:42:42;;;;;;;2.28;2.17;;;13.70;76.80;;;;;;6092331;23;20389;-74
2023/02/21 10:45:11;;;;;;;2.13;2.03;;;13.80;78.10;;;;;;6044591;23;20428;-74
2023/02/21 10:47:57;;;;;;;2.20;2.10;;;13.80;76.50;;;;;;6066942;23;20381;-73
2023/02/21 10:51:03;;;;;;;2.20;2.10;;;13.80;79.80;;;;;;6092047;23;20866;-74
2023/02/21 10:53:32;;;;;;;2.40;2.20;;;13.90;77.60;;;;;;6092584;23;20714;-73
2023/02/21 10:56:13;;;;;;;2.30;2.10;;;14.10;78.20;;;;;;6068250;23;20385;-74
2023/02/21 10:59:00;;;;;;;1.95;1.85;;;14.10;75.40;;;;;;6092629;23;20385;-74
2023/02/21 11:01:29;;;;;;;2.00;1.90;;;13.70;76.80;;;;;;6066984;23;20434;-75
2023/02/21 11:04:20;;;;;;;2.03;1.92;;;13.90;76.50;;;;;;6093562;23;20388;-74
2023/02/21 11:06:49;;;;;;;2.38;2.28;;;14.00;78.60;;;;;;6074598;23;20469;-74
2023/02/21 11:09:31;;;;;;;2.38;2.25;;;14.40;77.30;;;;;;6068136;23;20436;-76
2023/02/21 11:12:19;;;;;;;2.13;2.03;;;14.50;74.60;;;;;;6067643;23;21530;-74
2023/02/21 11:14:52;;;;;;;2.20;2.10;;;14.60;75.60;;;;;;6065875;23;20440;-73
2023/02/21 11:17:31;;;;;;;2.28;2.17;;;14.40;73.40;;;;;;6067576;23;20413;-75
2023/02/21 11:20:09;;;;;;;2.20;2.10;;;14.50;73.90;;;;;;6091693;23;20370;-74
2023/02/21 11:22:45;;;;;;;2.13;2.03;;;14.40;73.80;;;;;;6091479;23;20459;-74
2023/02/21 11:25:24;;;;;;;2.40;2.30;;;14.30;74.80;;;;;;6067885;23;20841;-74
2023/02/21 11:28:16;;;;;;;2.73;2.63;;;14.40;75.30;;;;;;6066582;23;20381;-73
2023/02/21 11:31:10;;;;;;;2.33;2.15;;;14.30;74.40;;;;;;6092117;23;20389;-74
2023/02/21 11:33:54;;;;;;;3.05;2.85;;;14.10;76.10;;;;;;6092161;23;20388;-73
2023/02/21 11:36:30;;;;;;;2.27;2.17;;;14.40;75.80;;;;;;6092431;23;20385;-74
2023/02/21 11:39:03;;;;;;;1.70;1.60;;;14.50;75.40;;;;;;6090632;23;20474;-74
2023/02/21 11:41:38;;;;;;;1.75;1.65;;;14.60;76.60;;;;;;6067877;23;20710;-74
2023/02/21 11:44:22;;;;;;;1.90;1.80;;;14.70;72.80;;;;;;6092211;23;20377;-73
2023/02/21 11:46:56;;;;;;;2.00;1.90;;;15.00;73.40;;;;;;6066460;23;20381;-76
2023/02/21 11:49:32;;;;;;;2.30;2.15;;;14.90;69.90;;;;;;6066046;23;20377;-73
2023/02/21 11:52:08;;;;;;;3.65;3.35;;;14.80;71.60;;;;;;6065498;23;20421;-74
2023/02/21 11:54:37;;;;;;;3.38;3.17;;;14.80;73.10;;;;;;6066839;23;20445;-74
2023/02/21 11:57:20;;;;;;;2.08;1.98;;;15.10;71.70;;;;;;6066477;23;20702;-74
2023/02/21 11:59:55;;;;;;;1.90;1.80;;;15.00;69.20;;;;;;6066453;23;20377;-73
2023/02/21 12:02:35;;;;;;;2.00;1.90;;;15.30;69.90;;;;;;6092668;23;20401;-74
2023/02/21 12:05:28;;;;;;;2.35;2.25;;;15.60;68.70;;;;;;6091808;23;20387;-74
2023/02/21 12:08:41;;;;;;;1.97;1.87;;;15.40;67.40;;;;;;6065206;23;20390;-74
2023/02/21 12:11:29;;;;;;;2.10;2.00;;;15.40;69.10;;;;;;6065003;23;20388;-73
2023/02/21 12:14:24;;;;;;;2.30;2.20;;;15.30;67.70;;;;;;6064121;23;20392;-73
2023/02/21 12:16:55;;;;;;;1.70;1.60;;;15.30;70.00;;;;;;6066045;23;20381;-73
2023/02/21 12:19:38;;;;;;;1.60;1.50;;;15.20;69.30;;;;;;6066498;23;20853;-73
2023/02/21 12:22:22;;;;;;;2.00;1.90;;;15.50;68.40;;;;;;6090417;23;20382;-74
2023/02/21 12:25:26;;;;;;;2.20;2.00;;;15.30;66.60;;;;;;6066282;23;20431;-74
2023/02/21 12:28:30;;;;;;;1.65;1.55;;;15.70;67.50;;;;;;6065847;23;20457;-74
2023/02/21 12:31:19;;;;;;;1.90;1.80;;;15.80;64.60;;;;;;6066505;23;20492;-74
2023/02/21 12:34:14;;;;;;;1.98;1.88;;;15.50;66.50;;;;;;6091569;23;20719;-75
2023/02/21 12:37:07;;;;;;;1.73;1.63;;;15.40;67.20;;;;;;6067465;23;20381;-73
2023/02/21 12:40:13;;;;;;;2.10;2.00;;;15.40;66.80;;;;;;6065827;23;20373;-74
2023/02/21 12:42:51;;;;;;;2.10;2.00;;;15.50;67.20;;;;;;6067639;23;20436;-74
2023/02/21 12:45:57;;;;;;;1.85;1.75;;;15.80;66.30;;;;;;6066088;23;20429;-74
2023/02/21 12:48:39;;;;;;;2.07;1.97;;;15.90;64.80;;;;;;6003329;23;20461;-74
2023/02/21 12:51:10;;;;;;;2.30;2.10;;;15.90;65.20;;;;;;6004464;23;20394;-73
2023/02/21 12:53:50;;;;;;;2.20;2.10;;;15.80;64.10;;;;;;6043353;23;20385;-73
2023/02/21 12:56:27;;;;;;;2.00;1.90;;;15.50;64.80;;;;;;6066615;23;20396;-74
2023/02/21 12:59:14;;;;;;;1.63;1.52;;;15.30;67.00;;;;;;6092652;23;20385;-74
2023/02/21 13:01:51;;;;;;;1.90;1.80;;;15.40;67.20;;;;;;6092034;23;20398;-73
2023/02/21 13:04:34;;;;;;;1.95;1.85;;;15.30;67.20;;;;;;6091527;23;20378;-74
2023/02/21 13:07:18;;;;;;;2.20;2.10;;;15.20;68.80;;;;;;6092667;23;20759;-73
2023/02/21 13:09:56;;;;;;;1.80;1.70;;;15.40;67.70;;;;;;6066940;23;20396;-72
2023/02/21 13:12:44;;;;;;;2.05;1.95;;;15.10;67.00;;;;;;6091033;23;20842;-73
2023/02/21 13:15:21;;;;;;;1.85;1.75;;;15.20;67.10;;;;;;6067782;23;20441;-73
2023/02/21 13:18:04;;;;;;;2.00;1.90;;;15.50;66.40;;;;;;6067169;23;20373;-73
2023/02/21 13:20:42;;;;;;;1.80;1.70;;;15.30;67.00;;;;;;6091334;23;20879;-74
2023/02/21 13:23:11;;;;;;;2.00;1.90;;;15.30;67.00;;;;;;6067279;23;20377;-73
2023/02/21 13:25:44;;;;;;;2.22;2.10;;;15.60;65.90;;;;;;6065357;23;20722;-73
2023/02/21 13:28:24;;;;;;;2.20;2.10;;;15.60;68.10;;;;;;6067617;23;20378;-76
2023/02/21 13:30:56;;;;;;;2.60;2.40;;;15.50;67.10;;;;;;6091450;23;20381;-73
2023/02/21 13:33:45;;;;;;;2.28;2.17;;;15.70;67.20;;;;;;6067199;23;20381;-73
2023/02/21 13:36:18;;;;;;;2.00;1.90;;;15.90;65.10;;;;;;6091098;23;20694;-73
2023/02/21 13:38:46;;;;;;;2.50;2.40;;;16.20;64.60;;;;;;6092769;23;20377;-74
2023/02/21 13:41:15;;;;;;;2.25;2.15;;;16.30;63.70;;;;;;6065707;23;20401;-73
2023/02/21 13:43:51;;;;;;;2.97;2.77;;;15.70;65.30;;;;;;6092185;23;20463;-74
2023/02/21 13:46:30;;;;;;;2.50;2.40;;;15.40;66.70;;;;;;6065347;23;20842;-74
2023/02/21 13:49:34;;;;;;;2.60;2.50;;;15.40;68.60;;;;;;6090765;23;20388;-73
2023/02/21 13:52:22;;;;;;;2.40;2.30;;;15.60;66.40;;;;;;6065374;23;20444;-74
2023/02/21 13:55:13;;;;;;;2.70;2.60;;;15.50;67.50;;;;;;6091781;23;20420;-74
2023/02/21 13:57:45;;;;;;;3.00;2.90;;;15.60;66.20;;;;;;6066461;23;20373;-73
2023/02/21 14:00:23;;;;;;;2.83;2.72;;;15.60;66.60;;;;;;6066853;23;20386;-75
2023/02/21 14:02:58;;;;;;;2.83;2.63;;;15.90;66.30;;;;;;6089657;23;20758;-73
2023/02/21 14:05:26;;;;;;;2.80;2.70;;;15.70;65.20;;;;;;6091849;23;20448;-73
2023/02/21 14:08:04;;;;;;;2.93;2.73;;;15.60;66.50;;;;;;6065358;23;20464;-74
2023/02/21 14:10:54;;;;;;;2.67;2.58;;;16.00;66.30;;;;;;6065692;23;20385;-74
2023/02/21 14:13:28;;;;;;;2.83;2.73;;;15.90;64.70;;;;;;6068500;23;20492;-73
2023/02/21 14:16:08;;;;;;;3.15;3.03;;;16.10;64.30;;;;;;6067829;23;20377;-73
2023/02/21 14:18:42;;;;;;;3.33;3.13;;;16.30;63.60;;;;;;6093336;23;20767;-74
2023/02/21 14:21:22;;;;;;;2.65;2.45;;;16.10;63.70;;;;;;6093922;23;20495;-73
2023/02/21 14:24:00;;;;;;;2.88;2.78;;;16.10;64.20;;;;;;6067961;23;20407;-74
2023/02/21 14:26:33;;;;;;;3.00;2.90;;;15.80;64.20;;;;;;6057926;23;20472;-73
2023/02/21 14:29:13;;;;;;;3.13;2.92;;;15.40;67.00;;;;;;6092518;23;20376;-74
2023/02/21 14:31:55;;;;;;;4.10;3.90;;;15.60;67.30;;;;;;6092750;23;20443;-73
2023/02/21 14:34:32;;;;;;;3.15;2.95;;;15.60;67.50;;;;;;6093083;23;20451;-73
2023/02/21 14:37:25;;;;;;;2.80;2.70;;;15.50;67.30;;;;;;6066710;23;20392;-73
2023/02/21 14:39:56;;;;;;;3.33;3.13;;;15.30;67.90;;;;;;6092282;23;20425;-74
2023/02/21 14:42:30;;;;;;;2.80;2.67;;;15.40;68.30;;;;;;6068429;23;20389;-73
2023/02/21 14:45:09;;;;;;;3.00;2.80;;;15.20;68.70;;;;;;6066104;23;20437;-74
2023/02/21 14:48:13;;;;;;;3.25;3.05;;;15.20;69.00;;;;;;6068136;23;20389;-73
2023/02/21 14:51:05;;;;;;;2.85;2.75;;;15.10;69.30;;;;;;6091533;23;20373;-73
2023/02/21 14:53:51;;;;;;;2.70;2.60;;;14.90;69.90;;;;;;6066864;23;20381;-73
2023/02/21 14:56:36;;;;;;;2.90;2.80;;;14.80;71.40;;;;;;6092047;23;20467;-74
2023/02/21 14:59:44;;;;;;;3.17;2.97;;;14.90;72.50;;;;;;6068491;23;20374;-72
2023/02/21 15:02:22;;;;;;;3.17;3.05;;;14.80;73.10;;;;;;6067676;23;20468;-73
2023/02/21 15:05:04;;;;;;;3.00;2.80;;;14.70;73.40;;;;;;6066901;23;20826;-75
2023/02/21 15:07:33;;;;;;;2.95;2.75;;;14.70;74.10;;;;;;6092749;23;20377;-74
2023/02/21 15:10:24;;;;;;;2.80;2.70;;;14.60;74.70;;;;;;6067382;23;20861;-73
2023/02/21 15:13:01;;;;;;;3.03;2.83;;;14.40;75.10;;;;;;6081463;23;20382;-74
2023/02/21 15:15:39;;;;;;;2.92;2.72;;;14.50;75.50;;;;;;6067233;23;20390;-74
2023/02/21 15:18:09;;;;;;;3.20;3.00;;;14.40;75.50;;;;;;6066649;23;20409;-73
2023/02/21 15:20:39;;;;;;;3.42;3.22;;;14.50;75.80;;;;;;6092063;23;20442;-73
2023/02/21 15:23:14;;;;;;;2.95;2.85;;;14.50;76.20;;;;;;6092310;23;20385;-73
2023/02/21 15:25:51;;;;;;;3.38;3.17;;;14.40;78.00;;;;;;6068152;23;20385;-73
2023/02/21 15:28:29;;;;;;;3.00;2.90;;;14.30;79.20;;;;;;6068051;23;20438;-74
2023/02/21 15:30:59;;;;;;;3.25;3.15;;;14.30;79.80;;;;;;6067698;23;20415;-73
2023/02/21 15:33:32;;;;;;;2.95;2.83;;;14.20;79.50;;;;;;6067953;23;20838;-74
2023/02/21 15:36:05;;;;;;;3.08;2.88;;;14.20;79.50;;;;;;6067675;23;20373;-73
2023/02/21 15:38:47;;;;;;;3.20;3.00;;;14.20;80.60;;;;;;6068121;23;20377;-73
2023/02/21 15:41:41;;;;;;;3.13;2.93;;;14.30;80.00;;;;;;6092226;23;20523;-74
2023/02/21 15:44:22;;;;;;;3.10;2.90;;;14.30;79.10;;;;;;6092558;23;20738;-74
2023/02/21 15:46:58;;;;;;;2.95;2.75;;;14.30;79.10;;;;;;6092621;23;20377;-74
2023/02/21 15:49:29;;;;;;;2.83;2.63;;;14.20;80.30;;;;;;6066895;23;20731;-73
2023/02/21 15:51:56;;;;;;;2.85;2.65;;;14.20;80.20;;;;;;6067542;23;20850;-73
2023/02/21 15:54:30;;;;;;;3.60;3.40;;;14.20;81.30;;;;;;6091733;23;20378;-73
2023/02/21 15:57:01;;;;;;;3.53;3.33;;;14.00;81.30;;;;;;6093283;23;20385;-74
2023/02/21 15:59:29;;;;;;;3.00;2.90;;;14.00;81.90;;;;;;6066632;23;20440;-73
2023/02/21 16:02:06;;;;;;;4.32;4.10;;;13.90;81.80;;;;;;6067870;23;20755;-73
2023/02/21 16:04:38;;;;;;;5.10;4.80;;;13.90;82.80;;;;;;6092744;23;20377;-74
2023/02/21 16:07:16;;;;;;;4.32;4.03;;;13.90;83.20;;;;;;6067549;23;20385;-73
2023/02/21 16:09:49;;;;;;;4.72;4.43;;;13.90;83.90;;;;;;6065640;23;20445;-74
2023/02/21 16:12:50;;;;;;;3.50;3.30;;;13.90;83.50;;;;;;6091724;23;20509;-73
2023/02/21 16:15:25;;;;;;;3.50;3.30;;;13.90;83.20;;;;;;6021775;23;20758;-75
2023/02/21 16:17:59;;;;;;;3.60;3.30;;;13.90;82.50;;;;;;6067553;23;20774;-74
2023/02/21 16:20:31;;;;;;;3.63;3.42;;;13.90;84.80;;;;;;6067150;23;20373;-73
2023/02/21 16:23:19;;;;;;;3.30;3.10;;;13.90;84.60;;;;;;6092072;23;20388;-74
2023/02/21 16:26:01;;;;;;;3.50;3.30;;;13.90;84.60;;;;;;6066295;23;20409;-73
2023/02/21 16:28:30;;;;;;;2.78;2.67;;;13.80;85.50;;;;;;6065808;23;20460;-74
2023/02/21 16:31:00;;;;;;;3.07;2.87;;;13.80;87.30;;;;;;6067126;23;20807;-73
2023/02/21 16:33:28;;;;;;;2.75;2.65;;;13.80;88.70;;;;;;6065562;23;20468;-74
2023/02/21 16:35:55;;;;;;;3.05;2.95;;;13.80;89.30;;;;;;6066162;23;20432;-74
2023/02/21 16:38:24;;;;;;;2.90;2.80;;;13.70;89.80;;;;;;6064917;23;20374;-74
2023/02/21 16:40:52;;;;;;;2.85;2.70;;;13.70;89.30;;;;;;6066720;23;20405;-73
2023/02/21 16:43:24;;;;;;;3.15;3.00;;;13.70;90.20;;;;;;6092130;23;20424;-74
2023/02/21 16:45:54;;;;;;;3.00;2.85;;;13.60;90.50;;;;;;6090706;23;20461;-73
2023/02/21 16:48:31;;;;;;;2.72;2.60;;;13.60;90.60;;;;;;6066976;23;20385;-74